Time;durP1;ratioP1;P1;durP2;ratioP2;P2;SDS_P1;SDS_P2;PMS_P1;PMS_P2;Temp;Humidity;BMP_temperature;BMP_pressure;BME280_temperature;BME280_humidity;BME280_pressure;Samples;Min_cycle;Max_cycle;Signal;HPM_P1;HPM_P2
2021/08/09 00:00:56;0.00;0.00;0.62;0.00;0.00;0.62;1.70;1.30;;;24.30;33.80;;;;;;2253891;61;20656;-48
2021/08/09 00:03:22;0.00;0.00;0.62;0.00;0.00;0.62;2.87;1.83;;;24.30;33.90;;;;;;2252826;61;20401;-51
2021/08/09 00:05:49;0.00;0.00;0.62;0.00;0.00;0.62;2.20;1.40;;;24.30;34.00;;;;;;2253770;61;20353;-47
2021/08/09 00:08:16;0.00;0.00;0.62;0.00;0.00;0.62;1.70;1.20;;;24.30;34.00;;;;;;2253836;61;20357;-52
2021/08/09 00:10:42;0.00;0.00;0.62;0.00;0.00;0.62;3.07;1.50;;;24.30;34.10;;;;;;2252883;61;20376;-51
2021/08/09 00:13:09;0.00;0.00;0.62;0.00;0.00;0.62;3.63;1.40;;;24.30;34.00;;;;;;2253667;61;20363;-50
2021/08/09 00:15:35;0.00;0.00;0.62;0.00;0.00;0.62;2.60;1.40;;;24.30;33.90;;;;;;2253786;61;20361;-51
2021/08/09 00:18:03;0.00;0.00;0.62;0.00;0.00;0.62;2.30;1.57;;;24.30;33.90;;;;;;2253427;61;20615;-52
2021/08/09 00:20:30;0.00;0.00;0.62;0.00;0.00;0.62;2.10;1.20;;;24.30;33.90;;;;;;2253317;61;20392;-49
2021/08/09 00:22:57;0.00;0.00;0.62;0.00;0.00;0.62;1.97;1.37;;;24.20;33.90;;;;;;2253498;61;20379;-50
2021/08/09 00:25:23;0.00;0.00;0.62;0.00;0.00;0.62;1.73;1.47;;;24.30;34.00;;;;;;2253619;61;20361;-52
2021/08/09 00:27:50;0.00;0.00;0.62;0.00;0.00;0.62;2.13;1.33;;;24.30;34.10;;;;;;2253271;61;20435;-50
2021/08/09 00:30:17;0.00;0.00;0.62;0.00;0.00;0.62;2.10;1.40;;;24.30;34.10;;;;;;2253514;61;20611;-50
2021/08/09 00:32:43;0.00;0.00;0.62;0.00;0.00;0.62;2.73;1.50;;;24.30;34.10;;;;;;2256531;61;20361;-51
2021/08/09 00:35:11;0.00;0.00;0.62;0.00;0.00;0.62;3.13;1.33;;;24.30;34.10;;;;;;2252620;61;20720;-50
2021/08/09 00:37:39;0.00;0.00;0.62;0.00;0.00;0.62;2.23;1.40;;;24.30;34.10;;;;;;2256428;61;20435;-49
2021/08/09 00:40:09;0.00;0.00;0.62;0.00;0.00;0.62;2.20;1.53;;;24.40;34.20;;;;;;2256450;61;20376;-50
2021/08/09 00:42:35;0.00;0.00;0.62;0.00;0.00;0.62;2.63;1.67;;;24.30;34.10;;;;;;2255854;61;20642;-51
2021/08/09 00:45:03;0.00;0.00;0.62;0.00;0.00;0.62;1.83;1.00;;;24.40;34.20;;;;;;2256496;61;20364;-50
2021/08/09 00:47:30;0.00;0.00;0.62;0.00;0.00;0.62;2.17;1.47;;;24.40;34.20;;;;;;2256526;61;20368;-51
2021/08/09 00:49:56;0.00;0.00;0.62;0.00;0.00;0.62;3.10;1.23;;;24.40;34.20;;;;;;2255554;61;20381;-52
2021/08/09 00:52:25;0.00;0.00;0.62;0.00;0.00;0.62;1.97;1.30;;;24.40;34.10;;;;;;2256354;61;20604;-49
2021/08/09 00:54:53;0.00;0.00;0.62;0.00;0.00;0.62;1.87;1.27;;;24.40;34.10;;;;;;2253353;61;20400;-51
2021/08/09 00:57:20;0.00;0.00;0.62;0.00;0.00;0.62;3.40;1.40;;;24.50;34.20;;;;;;2252363;61;20387;-49
2021/08/09 00:59:46;0.00;0.00;0.62;0.00;0.00;0.62;3.40;1.60;;;24.50;34.20;;;;;;2256354;61;20600;-49
2021/08/09 01:02:13;0.00;0.00;0.62;0.00;0.00;0.62;3.33;1.40;;;24.50;34.10;;;;;;2256694;61;20359;-49
2021/08/09 01:04:42;0.00;0.00;0.62;0.00;0.00;0.62;1.63;1.07;;;24.50;34.10;;;;;;2255524;61;20724;-50
2021/08/09 01:07:09;0.00;0.00;0.62;0.00;0.00;0.62;1.80;1.20;;;24.50;34.10;;;;;;2253225;61;20357;-49
2021/08/09 01:09:48;0.00;0.00;0.62;0.00;0.00;0.62;1.73;1.30;;;24.60;34.20;;;;;;2256384;61;20360;-49
2021/08/09 01:12:21;0.00;0.00;0.62;0.00;0.00;0.62;2.00;1.30;;;24.60;34.20;;;;;;2253115;61;20681;-49
2021/08/09 01:15:01;0.00;0.00;0.62;0.00;0.00;0.62;1.50;1.17;;;24.50;34.20;;;;;;2256503;61;20589;-48
2021/08/09 01:17:36;0.00;0.00;0.62;0.00;0.00;0.62;3.30;1.67;;;24.60;34.30;;;;;;2252225;61;20438;-52
2021/08/09 01:20:19;0.00;0.00;0.62;0.00;0.00;0.62;2.10;1.50;;;24.60;34.20;;;;;;2256295;61;20463;-51
2021/08/09 01:22:57;0.00;0.00;0.62;0.00;0.00;0.62;3.20;1.40;;;24.60;34.30;;;;;;2256499;61;20365;-49
2021/08/09 01:25:38;0.00;0.00;0.62;0.00;0.00;0.62;3.67;1.30;;;24.60;34.20;;;;;;2255466;61;20387;-50
2021/08/09 01:28:09;0.00;0.00;0.62;0.00;0.00;0.62;2.60;1.40;;;24.60;34.20;;;;;;2253583;61;20436;-49
2021/08/09 01:30:38;0.00;0.00;0.62;0.00;0.00;0.62;2.13;1.10;;;24.60;34.20;;;;;;2256307;61;20395;-53
2021/08/09 01:33:09;0.00;0.00;0.62;0.00;0.00;0.62;1.90;1.20;;;24.60;34.20;;;;;;2252414;61;20611;-55
2021/08/09 01:35:37;0.00;0.00;0.62;0.00;0.00;0.62;2.00;1.10;;;24.60;34.20;;;;;;2254342;61;20584;-54
2021/08/09 01:38:05;0.00;0.00;0.62;0.00;0.00;0.62;1.40;0.93;;;24.60;34.20;;;;;;2257037;61;20717;-54
2021/08/09 01:40:37;0.00;0.00;0.62;0.00;0.00;0.62;1.60;1.00;;;24.60;34.10;;;;;;2256028;61;20380;-50
2021/08/09 01:43:04;0.00;0.00;0.62;0.00;0.00;0.62;2.10;1.17;;;24.60;34.10;;;;;;2257024;61;20405;-51
2021/08/09 01:45:33;0.00;0.00;0.62;0.00;0.00;0.62;1.90;1.27;;;24.60;34.10;;;;;;2257098;61;20779;-50
2021/08/09 01:48:01;0.00;0.00;0.62;0.00;0.00;0.62;2.30;1.30;;;24.60;34.10;;;;;;2253237;61;20360;-49
2021/08/09 01:50:33;0.00;0.00;0.62;0.00;0.00;0.62;2.03;1.33;;;24.60;34.20;;;;;;2256959;61;20423;-52
2021/08/09 01:53:01;0.00;0.00;0.62;0.00;0.00;0.62;1.60;1.20;;;24.70;34.20;;;;;;2256968;61;20353;-52
2021/08/09 01:55:28;0.00;0.00;0.62;0.00;0.00;0.62;2.30;1.43;;;24.60;34.20;;;;;;2256055;61;20353;-51
2021/08/09 01:57:58;0.00;0.00;0.62;0.00;0.00;0.62;3.40;1.20;;;24.70;34.20;;;;;;2257018;61;20740;-49
2021/08/09 02:00:28;0.00;0.00;0.62;0.00;0.00;0.62;2.27;1.40;;;24.60;34.10;;;;;;2253658;61;20735;-52
2021/08/09 02:02:56;0.00;0.00;0.62;0.00;0.00;0.62;1.97;1.37;;;24.70;34.20;;;;;;2255972;61;20440;-52
2021/08/09 02:05:25;0.00;0.00;0.62;0.00;0.00;0.62;1.50;0.90;;;24.70;34.20;;;;;;2256925;61;20367;-50
2021/08/09 02:08:02;0.00;0.00;0.62;0.00;0.00;0.62;2.10;1.40;;;24.70;34.20;;;;;;2257030;61;20356;-50
2021/08/09 02:10:30;0.00;0.00;0.62;0.00;0.00;0.62;1.63;1.03;;;24.70;34.90;;;;;;2255930;61;20372;-51
2021/08/09 02:13:08;0.00;0.00;0.62;0.00;0.00;0.62;2.03;1.43;;;24.70;34.30;;;;;;2256963;61;20591;-49
2021/08/09 02:15:42;0.00;0.00;0.62;0.00;0.00;0.62;2.10;1.50;;;24.70;34.20;;;;;;2256988;61;20696;-52
2021/08/09 02:18:19;0.00;0.00;0.62;0.00;0.00;0.62;1.60;1.07;;;24.70;34.20;;;;;;2255949;61;20480;-50
2021/08/09 02:20:47;0.00;0.00;0.62;0.00;0.00;0.62;2.00;1.23;;;24.70;34.20;;;;;;2256797;61;20392;-53
2021/08/09 02:23:20;0.00;0.00;0.62;0.00;0.00;0.62;2.77;1.37;;;24.70;34.20;;;;;;2256966;61;20360;-52
2021/08/09 02:25:51;0.00;0.00;0.62;0.00;0.00;0.62;1.50;1.20;;;24.70;34.20;;;;;;2256051;61;20759;-50
2021/08/09 02:28:22;0.00;0.00;0.62;0.00;0.00;0.62;2.10;1.27;;;24.70;34.20;;;;;;2256889;61;20584;-52
2021/08/09 02:30:53;0.00;0.00;0.62;0.00;0.00;0.62;2.10;1.10;;;24.70;34.20;;;;;;2256847;61;20376;-51
2021/08/09 02:33:23;0.00;0.00;0.62;0.00;0.00;0.62;1.60;1.10;;;24.70;34.20;;;;;;2256122;61;20353;-50
2021/08/09 02:35:51;0.00;0.00;0.62;0.00;0.00;0.62;2.13;1.30;;;24.70;34.20;;;;;;2256931;61;20365;-49
2021/08/09 02:38:21;0.00;0.00;0.62;0.00;0.00;0.62;2.43;1.70;;;24.70;34.20;;;;;;2256939;61;20818;-49
2021/08/09 02:40:48;0.00;0.00;0.62;0.00;0.00;0.62;2.40;1.43;;;24.70;34.20;;;;;;2255917;61;20424;-49
2021/08/09 02:43:16;0.00;0.00;0.62;0.00;0.00;0.62;6.40;1.67;;;24.70;34.20;;;;;;2256866;61;20716;-51
2021/08/09 02:45:50;0.00;0.00;0.62;0.00;0.00;0.62;2.00;1.10;;;24.70;34.20;;;;;;2256653;61;20360;-50
2021/08/09 02:48:18;0.00;0.00;0.62;0.00;0.00;0.62;1.67;1.30;;;24.70;34.20;;;;;;2256019;61;20435;-50
2021/08/09 02:50:47;0.00;0.00;0.62;0.00;0.00;0.62;2.13;1.30;;;24.70;34.20;;;;;;2256813;61;20373;-49
2021/08/09 02:53:16;0.00;0.00;0.62;0.00;0.00;0.62;2.00;1.20;;;24.70;34.20;;;;;;2253887;61;20368;-51
2021/08/09 02:55:44;0.00;0.00;0.62;0.00;0.00;0.62;5.10;1.80;;;24.70;34.10;;;;;;2256071;61;20357;-50
2021/08/09 02:58:11;0.00;0.00;0.62;0.00;0.00;0.62;3.40;1.60;;;24.70;33.90;;;;;;2256906;61;20376;-54
2021/08/09 03:00:37;0.00;0.00;0.62;0.00;0.00;0.62;2.90;1.40;;;24.70;33.80;;;;;;2256699;61;20377;-53
2021/08/09 03:03:04;0.00;0.00;0.62;0.00;0.00;0.62;2.53;1.80;;;24.70;33.80;;;;;;2253115;61;20353;-53
2021/08/09 03:05:32;0.00;0.00;0.62;0.00;0.00;0.62;2.00;1.50;;;24.70;33.90;;;;;;2253553;61;20615;-53
2021/08/09 03:08:01;0.00;0.00;0.62;0.00;0.00;0.62;2.03;1.73;;;24.70;33.90;;;;;;2256762;61;20352;-54
2021/08/09 03:10:28;0.00;0.00;0.62;0.00;0.00;0.62;3.10;1.37;;;24.60;33.90;;;;;;2255888;61;20464;-52
2021/08/09 03:12:58;0.00;0.00;0.62;0.00;0.00;0.62;5.00;1.73;;;24.60;33.90;;;;;;2253566;61;20349;-53
2021/08/09 03:15:26;0.00;0.00;0.62;0.00;0.00;0.62;2.17;1.30;;;24.60;34.00;;;;;;2256820;61;20360;-52
2021/08/09 03:17:53;0.00;0.00;0.62;0.00;0.00;0.62;5.67;1.37;;;24.60;34.00;;;;;;2253172;61;20392;-51
2021/08/09 03:20:20;0.00;0.00;0.62;0.00;0.00;0.62;2.43;1.50;;;24.60;34.00;;;;;;2256621;61;20392;-51
2021/08/09 03:22:46;0.00;0.00;0.62;0.00;0.00;0.62;2.30;1.53;;;24.60;34.10;;;;;;2253470;61;20575;-52
2021/08/09 03:25:14;0.00;0.00;0.62;0.00;0.00;0.62;2.77;1.60;;;24.60;34.10;;;;;;2255894;61;20360;-49
2021/08/09 03:27:41;0.00;0.00;0.62;0.00;0.00;0.62;2.13;1.37;;;24.60;34.10;;;;;;2253493;61;20369;-49
2021/08/09 03:30:09;0.00;0.00;0.62;0.00;0.00;0.62;4.13;1.53;;;24.60;34.10;;;;;;2256565;61;20399;-53
2021/08/09 03:32:35;0.00;0.00;0.62;0.00;0.00;0.62;2.37;1.37;;;24.60;34.70;;;;;;2252610;61;20367;-51
2021/08/09 03:35:03;0.00;0.00;0.62;0.00;0.00;0.62;1.83;1.27;;;24.60;34.10;;;;;;2256797;61;20363;-49
2021/08/09 03:37:29;0.00;0.00;0.62;0.00;0.00;0.62;1.93;1.10;;;24.60;34.10;;;;;;2253364;61;20396;-50
2021/08/09 03:39:56;0.00;0.00;0.62;0.00;0.00;0.62;1.73;1.53;;;24.70;34.20;;;;;;2253023;61;20689;-49
2021/08/09 03:42:23;0.00;0.00;0.62;0.00;0.00;0.62;2.50;1.20;;;24.60;34.10;;;;;;2256772;61;20357;-48
2021/08/09 03:44:51;0.00;0.00;0.62;0.00;0.00;0.62;2.13;1.60;;;24.60;34.10;;;;;;2256629;61;20422;-48
2021/08/09 03:47:17;0.00;0.00;0.62;0.00;0.00;0.62;2.57;1.63;;;24.60;34.20;;;;;;2255764;61;20356;-50
2021/08/09 03:49:44;0.00;0.00;0.62;0.00;0.00;0.62;2.87;1.73;;;24.60;34.10;;;;;;2256521;61;20693;-49
2021/08/09 03:52:10;0.00;0.00;0.62;0.00;0.00;0.62;2.83;1.60;;;24.60;34.10;;;;;;2253792;61;20690;-49
2021/08/09 03:54:37;0.00;0.00;0.62;0.00;0.00;0.62;1.83;1.40;;;24.60;34.10;;;;;;2253111;61;20411;-48
2021/08/09 03:57:03;0.00;0.00;0.62;0.00;0.00;0.62;4.83;1.40;;;24.60;34.10;;;;;;2256627;61;20434;-48
2021/08/09 03:59:31;0.00;0.00;0.62;0.00;0.00;0.62;1.60;1.40;;;24.70;34.20;;;;;;2253189;61;20379;-49
2021/08/09 04:01:58;0.00;0.00;0.62;0.00;0.00;0.62;2.57;1.70;;;24.70;34.20;;;;;;2253005;61;20578;-49
2021/08/09 04:04:24;0.00;0.00;0.62;0.00;0.00;0.62;3.80;2.10;;;24.70;34.20;;;;;;2256583;61;20349;-48
2021/08/09 04:06:51;0.00;0.00;0.62;0.00;0.00;0.62;2.20;1.20;;;24.70;34.20;;;;;;2256510;61;20360;-49
2021/08/09 04:09:18;0.00;0.00;0.62;0.00;0.00;0.62;2.57;1.40;;;24.60;34.10;;;;;;2255598;61;20743;-48
2021/08/09 04:11:45;0.00;0.00;0.62;0.00;0.00;0.62;1.63;1.10;;;24.70;34.20;;;;;;2256466;61;20387;-49
2021/08/09 04:14:11;0.00;0.00;0.62;0.00;0.00;0.62;2.47;1.67;;;24.70;34.20;;;;;;2256607;61;20353;-50
2021/08/09 04:16:39;0.00;0.00;0.62;0.00;0.00;0.62;2.60;1.60;;;24.70;34.20;;;;;;2255612;61;20357;-49
2021/08/09 04:19:06;0.00;0.00;0.62;0.00;0.00;0.62;2.63;1.60;;;24.70;34.20;;;;;;2253664;61;20967;-49
2021/08/09 04:21:33;0.00;0.00;0.62;0.00;0.00;0.62;1.87;1.30;;;24.70;34.20;;;;;;2256508;61;20443;-48
2021/08/09 04:23:59;0.00;0.00;0.62;0.00;0.00;0.62;2.00;1.40;;;24.70;34.20;;;;;;2252814;61;20669;-50
2021/08/09 04:26:26;0.00;0.00;0.62;0.00;0.00;0.62;2.17;1.60;;;24.70;34.20;;;;;;2256423;61;20577;-52
2021/08/09 04:28:53;0.00;0.00;0.62;0.00;0.00;0.62;2.77;1.60;;;24.70;34.20;;;;;;2256447;61;20357;-53
2021/08/09 04:31:20;0.00;0.00;0.62;0.00;0.00;0.62;1.93;1.60;;;24.70;34.20;;;;;;2255619;61;20387;-53
2021/08/09 04:33:50;0.00;0.00;0.62;0.00;0.00;0.62;3.00;1.70;;;24.70;34.20;;;;;;2256356;61;20448;-53
2021/08/09 04:36:17;0.00;0.00;0.62;0.00;0.00;0.62;2.30;1.77;;;24.70;34.30;;;;;;2256671;61;20640;-53
2021/08/09 04:38:43;0.00;0.00;0.62;0.00;0.00;0.62;1.90;1.40;;;24.70;34.30;;;;;;2255476;61;20403;-52
2021/08/09 04:41:11;0.00;0.00;0.62;0.00;0.00;0.62;2.47;1.40;;;24.70;34.30;;;;;;2256455;61;20721;-50
2021/08/09 04:43:41;0.00;0.00;0.62;0.00;0.00;0.62;3.87;1.30;;;24.70;34.30;;;;;;2256464;61;20363;-49
2021/08/09 04:46:11;0.00;0.00;0.62;0.00;0.00;0.62;3.50;1.70;;;24.70;34.30;;;;;;2255523;61;20728;-49
2021/08/09 04:48:39;0.00;0.00;0.62;0.00;0.00;0.62;2.53;1.70;;;24.70;34.30;;;;;;2256320;61;20581;-49
2021/08/09 04:51:07;0.00;0.00;0.62;0.00;0.00;0.62;1.60;1.23;;;24.70;34.30;;;;;;2256564;61;20373;-50
2021/08/09 04:53:34;0.00;0.00;0.62;0.00;0.00;0.62;2.50;1.60;;;24.70;34.30;;;;;;2255599;61;20369;-50
2021/08/09 04:56:00;0.00;0.00;0.62;0.00;0.00;0.62;3.37;1.57;;;24.70;34.30;;;;;;2256344;61;20348;-52
2021/08/09 04:58:31;0.00;0.00;0.62;0.00;0.00;0.62;1.93;1.33;;;24.70;34.30;;;;;;2256452;61;20725;-49
2021/08/09 05:00:59;0.00;0.00;0.62;0.00;0.00;0.62;3.23;1.53;;;24.70;34.30;;;;;;2255456;61;20391;-50
2021/08/09 05:03:25;0.00;0.00;0.62;0.00;0.00;0.62;4.63;1.90;;;24.70;34.30;;;;;;2256378;61;20360;-51
2021/08/09 05:05:52;0.00;0.00;0.62;0.00;0.00;0.62;2.13;1.53;;;24.70;34.40;;;;;;2256424;61;20356;-49
2021/08/09 05:08:21;0.00;0.00;0.62;0.00;0.00;0.62;1.90;1.33;;;24.70;34.40;;;;;;2255724;61;20353;-50
2021/08/09 05:10:47;0.00;0.00;0.62;0.00;0.00;0.62;1.93;1.40;;;24.70;34.40;;;;;;2257073;61;20742;-55
2021/08/09 05:13:14;0.00;0.00;0.62;0.00;0.00;0.62;2.70;1.77;;;24.70;34.40;;;;;;2257197;61;20357;-50
2021/08/09 05:15:41;0.00;0.00;0.62;0.00;0.00;0.62;2.60;1.77;;;24.70;34.40;;;;;;2255969;61;20360;-51
2021/08/09 05:18:12;0.00;0.00;0.62;0.00;0.00;0.62;3.60;2.03;;;24.70;34.50;;;;;;2254324;61;20395;-50
2021/08/09 05:20:39;0.00;0.00;0.62;0.00;0.00;0.62;2.10;1.80;;;24.70;34.40;;;;;;2254237;61;20773;-52
2021/08/09 05:23:05;0.00;0.00;0.62;0.00;0.00;0.62;3.60;2.20;;;24.70;34.30;;;;;;2253098;61;20400;-49
2021/08/09 05:25:35;0.00;0.00;0.62;0.00;0.00;0.62;3.83;1.70;;;24.60;34.30;;;;;;2254353;61;20357;-54
2021/08/09 05:28:01;0.00;0.00;0.62;0.00;0.00;0.62;3.07;1.80;;;24.70;34.30;;;;;;2254248;61;20357;-55
2021/08/09 05:30:28;0.00;0.00;0.62;0.00;0.00;0.62;2.90;1.50;;;24.60;34.30;;;;;;2253147;61;20379;-55
2021/08/09 05:32:55;0.00;0.00;0.62;0.00;0.00;0.62;5.23;1.60;;;24.60;34.30;;;;;;2254377;61;20360;-52
2021/08/09 05:35:22;0.00;0.00;0.62;0.00;0.00;0.62;3.87;1.63;;;24.60;34.40;;;;;;2254371;61;20584;-52
2021/08/09 05:37:48;0.00;0.00;0.62;0.00;0.00;0.62;2.50;1.50;;;24.60;34.40;;;;;;2253074;61;20709;-52
2021/08/09 05:40:16;0.00;0.00;0.62;0.00;0.00;0.62;2.60;1.70;;;24.60;34.50;;;;;;2253725;61;20380;-51
2021/08/09 05:42:48;0.00;0.00;0.62;0.00;0.00;0.62;1.93;1.37;;;24.60;34.50;;;;;;2253876;61;20364;-51
2021/08/09 05:45:16;0.00;0.00;0.62;0.00;0.00;0.62;1.63;1.30;;;24.60;34.50;;;;;;2255934;61;20357;-49
2021/08/09 05:47:43;0.00;0.00;0.62;0.00;0.00;0.62;2.63;1.50;;;24.70;34.60;;;;;;2256053;61;20399;-55
2021/08/09 05:50:12;0.00;0.00;0.62;0.00;0.00;0.62;2.63;1.80;;;24.70;34.60;;;;;;2256050;61;20782;-52
2021/08/09 05:52:45;0.00;0.00;0.62;0.00;0.00;0.62;3.07;1.70;;;24.70;34.60;;;;;;2256014;61;20674;-52
2021/08/09 05:55:13;0.00;0.00;0.62;0.00;0.00;0.62;3.00;1.70;;;24.70;34.60;;;;;;2256782;61;20620;-50
2021/08/09 05:57:41;0.00;0.00;0.62;0.00;0.00;0.62;3.60;1.80;;;24.70;34.60;;;;;;2256694;61;20438;-51
2021/08/09 06:00:12;0.00;0.00;0.62;0.00;0.00;0.62;2.30;1.40;;;24.70;34.60;;;;;;2255957;61;20373;-53
2021/08/09 06:02:52;0.00;0.00;0.62;0.00;0.00;0.62;2.53;1.63;;;24.70;34.70;;;;;;2253469;61;20513;-51
2021/08/09 06:05:41;0.00;0.00;0.62;0.00;0.00;0.62;3.03;1.43;;;24.70;34.70;;;;;;2253907;61;20487;-52
2021/08/09 06:08:11;0.00;0.00;0.62;0.00;0.00;0.62;2.30;1.63;;;24.80;34.70;;;;;;2256245;61;20360;-50
2021/08/09 06:10:38;0.00;0.00;0.62;0.00;0.00;0.62;2.90;1.80;;;24.80;34.70;;;;;;2256615;61;20383;-50
2021/08/09 06:13:08;0.00;0.00;0.62;0.00;0.00;0.62;2.73;1.83;;;24.80;34.80;;;;;;2256445;61;20360;-52
2021/08/09 06:15:36;0.00;0.00;0.62;0.00;0.00;0.62;1.60;1.27;;;24.80;34.80;;;;;;2256186;61;20362;-54
2021/08/09 06:18:03;0.00;0.00;0.62;0.00;0.00;0.62;2.43;1.57;;;24.80;34.80;;;;;;2253793;61;20475;-51
2021/08/09 06:20:31;0.00;0.00;0.62;0.00;0.00;0.62;3.10;1.47;;;24.80;34.80;;;;;;2256417;61;20590;-51
2021/08/09 06:22:58;0.00;0.00;0.62;0.00;0.00;0.62;2.87;1.80;;;24.80;34.70;;;;;;2256238;61;20698;-51
2021/08/09 06:25:26;0.00;0.00;0.62;0.00;0.00;0.62;3.10;1.93;;;24.90;34.80;;;;;;2256586;61;20353;-51
2021/08/09 06:27:53;0.00;0.00;0.62;0.00;0.00;0.62;2.83;1.70;;;24.90;34.90;;;;;;2253362;61;20415;-53
2021/08/09 06:30:20;0.00;0.00;0.62;0.00;0.00;0.62;2.10;1.50;;;24.90;34.80;;;;;;2255978;61;20403;-49
2021/08/09 06:32:48;0.00;0.00;0.62;0.00;0.00;0.62;2.57;1.67;;;24.90;34.80;;;;;;2253729;61;20583;-51
2021/08/09 06:35:15;0.00;0.00;0.62;0.00;0.00;0.62;3.90;2.00;;;24.90;34.80;;;;;;2256622;61;20352;-51
2021/08/09 06:37:42;0.00;0.00;0.62;0.00;0.00;0.62;1.70;1.37;;;24.90;34.80;;;;;;2256111;61;20729;-50
2021/08/09 06:40:10;0.00;0.00;0.62;0.00;0.00;0.62;4.60;1.63;;;24.90;34.80;;;;;;2256290;61;20372;-50
2021/08/09 06:42:39;0.00;0.00;0.62;0.00;0.00;0.62;3.93;1.70;;;25.00;34.90;;;;;;2253347;61;20368;-54
2021/08/09 06:45:13;0.00;0.00;0.62;0.00;0.00;0.62;2.37;1.60;;;25.00;34.90;;;;;;2253310;61;20571;-55
2021/08/09 06:47:40;0.00;0.00;0.62;0.00;0.00;0.62;2.87;1.50;;;25.00;34.80;;;;;;2256509;61;20681;-52
2021/08/09 06:50:09;0.00;0.00;0.62;0.00;0.00;0.62;2.50;1.80;;;25.00;34.90;;;;;;2256349;61;20616;-54
2021/08/09 06:52:35;0.00;0.00;0.62;0.00;0.00;0.62;2.13;1.50;;;25.00;34.90;;;;;;2255950;61;20362;-54
2021/08/09 06:55:02;0.00;0.00;0.62;0.00;0.00;0.62;2.93;1.70;;;25.00;34.90;;;;;;2256463;61;20361;-50
2021/08/09 06:57:33;0.00;0.00;0.62;0.00;0.00;0.62;2.13;1.70;;;25.00;34.90;;;;;;2256583;61;20460;-55
2021/08/09 07:00:02;0.00;0.00;0.62;0.00;0.00;0.62;2.80;1.73;;;25.10;35.00;;;;;;2255986;61;20403;-51
2021/08/09 07:02:29;0.00;0.00;0.62;0.00;0.00;0.62;2.27;1.47;;;25.10;35.00;;;;;;2256341;61;20391;-53
2021/08/09 07:04:58;0.00;0.00;0.62;0.00;0.00;0.62;2.60;1.90;;;25.10;35.00;;;;;;2253238;61;20392;-52
2021/08/09 07:07:26;0.00;0.00;0.62;0.00;0.00;0.62;1.97;1.50;;;25.10;35.00;;;;;;2255936;61;20352;-51
2021/08/09 07:09:52;0.00;0.00;0.62;0.00;0.00;0.62;3.00;1.70;;;25.10;35.00;;;;;;2256174;61;20385;-50
2021/08/09 07:12:19;0.00;0.00;0.62;0.00;0.00;0.62;2.00;1.27;;;25.10;35.60;;;;;;2256447;61;20384;-50
2021/08/09 07:14:46;0.00;0.00;0.62;0.00;0.00;0.62;2.30;1.40;;;25.10;34.90;;;;;;2255918;61;20357;-51
2021/08/09 07:17:13;0.00;0.00;0.62;0.00;0.00;0.62;3.50;1.60;;;25.10;34.90;;;;;;2256368;61;20598;-51
2021/08/09 07:19:40;0.00;0.00;0.62;0.00;0.00;0.62;2.97;1.73;;;25.20;34.90;;;;;;2256322;61;20392;-53
2021/08/09 07:22:07;0.00;0.00;0.62;0.00;0.00;0.62;3.80;1.83;;;25.20;34.90;;;;;;2253076;61;20799;-53
2021/08/09 07:24:37;0.00;0.00;0.62;0.00;0.00;0.62;2.07;1.70;;;25.20;34.90;;;;;;2256303;61;20368;-54
2021/08/09 07:27:04;0.00;0.00;0.62;0.00;0.00;0.62;2.30;1.40;;;25.20;34.90;;;;;;2256446;61;20410;-51
2021/08/09 07:29:32;0.00;0.00;0.62;0.00;0.00;0.62;2.37;1.70;;;25.20;34.90;;;;;;2255692;61;20431;-50
2021/08/09 07:31:59;0.00;0.00;0.62;0.00;0.00;0.62;2.10;1.50;;;25.20;34.90;;;;;;2256211;61;20364;-53
2021/08/09 07:34:27;0.00;0.00;0.62;0.00;0.00;0.62;3.30;1.77;;;25.20;34.90;;;;;;2256397;61;20368;-53
2021/08/09 07:36:54;0.00;0.00;0.62;0.00;0.00;0.62;3.63;1.70;;;25.20;34.90;;;;;;2255838;61;20490;-49
2021/08/09 07:39:21;0.00;0.00;0.62;0.00;0.00;0.62;2.33;1.67;;;25.20;34.90;;;;;;2253073;61;20600;-51
2021/08/09 07:41:50;0.00;0.00;0.62;0.00;0.00;0.62;2.23;1.43;;;25.20;34.90;;;;;;2256431;61;20380;-53
2021/08/09 07:44:17;0.00;0.00;0.62;0.00;0.00;0.62;2.60;1.60;;;25.30;35.00;;;;;;2252950;61;20361;-50
2021/08/09 07:46:44;0.00;0.00;0.62;0.00;0.00;0.62;2.80;1.80;;;25.20;34.80;;;;;;2256342;61;20367;-54
2021/08/09 07:49:11;0.00;0.00;0.62;0.00;0.00;0.62;3.03;1.90;;;25.30;34.80;;;;;;2256280;61;20618;-51
2021/08/09 07:51:38;0.00;0.00;0.62;0.00;0.00;0.62;2.03;1.50;;;25.30;34.80;;;;;;2252440;61;20596;-51
2021/08/09 07:54:05;0.00;0.00;0.62;0.00;0.00;0.62;2.33;1.43;;;25.30;34.80;;;;;;2256307;61;20360;-51
2021/08/09 07:56:31;0.00;0.00;0.62;0.00;0.00;0.62;2.70;1.67;;;25.30;34.80;;;;;;2253610;61;20359;-50
2021/08/09 07:59:00;0.00;0.00;0.62;0.00;0.00;0.62;4.90;2.00;;;25.30;34.70;;;;;;2255592;61;20384;-51
2021/08/09 08:01:27;0.00;0.00;0.62;0.00;0.00;0.62;2.23;1.47;;;25.30;34.70;;;;;;2253464;61;20377;-50
2021/08/09 08:03:53;0.00;0.00;0.62;0.00;0.00;0.62;2.00;1.70;;;25.30;34.70;;;;;;2253549;61;20357;-53
2021/08/09 08:06:20;0.00;0.00;0.62;0.00;0.00;0.62;3.93;1.93;;;25.30;34.70;;;;;;2255620;61;20360;-53
2021/08/09 08:08:48;0.00;0.00;0.62;0.00;0.00;0.62;2.83;1.73;;;25.30;34.70;;;;;;2256188;61;20360;-50
2021/08/09 08:11:15;0.00;0.00;0.62;0.00;0.00;0.62;2.77;1.93;;;25.30;34.60;;;;;;2256278;61;20604;-51
2021/08/09 08:13:42;0.00;0.00;0.62;0.00;0.00;0.62;2.10;1.67;;;25.30;34.50;;;;;;2255635;61;20361;-51
2021/08/09 08:16:10;0.00;0.00;0.62;0.00;0.00;0.62;6.43;2.27;;;25.30;34.60;;;;;;2256269;61;20397;-48
2021/08/09 08:18:37;0.00;0.00;0.62;0.00;0.00;0.62;5.47;1.50;;;25.30;34.60;;;;;;2256124;61;20392;-52
2021/08/09 08:21:04;0.00;0.00;0.62;0.00;0.00;0.62;2.40;1.17;;;25.30;34.60;;;;;;2255551;61;20432;-50
2021/08/09 08:23:31;0.00;0.00;0.62;0.00;0.00;0.62;2.60;1.47;;;25.40;34.70;;;;;;2256228;61;20352;-50
2021/08/09 08:25:59;0.00;0.00;0.62;0.00;0.00;0.62;3.10;2.07;;;25.30;34.60;;;;;;2253369;61;20380;-53
2021/08/09 08:28:27;0.00;0.00;0.62;0.00;0.00;0.62;2.70;1.30;;;25.40;34.70;;;;;;2255546;61;20680;-52
2021/08/09 08:30:53;0.00;0.00;0.62;0.00;0.00;0.62;3.50;1.93;;;25.40;34.70;;;;;;2256216;61;20381;-50
2021/08/09 08:33:22;0.00;0.00;0.62;0.00;0.00;0.62;2.50;1.67;;;25.40;34.70;;;;;;2253359;61;20724;-48
2021/08/09 08:35:49;0.00;0.00;0.62;0.00;0.00;0.62;3.57;2.17;;;25.40;34.60;;;;;;2252359;61;20440;-49
2021/08/09 08:38:16;0.00;0.00;0.62;0.00;0.00;0.62;3.50;1.80;;;25.40;34.40;;;;;;2256237;61;20607;-51
2021/08/09 08:40:47;0.00;0.00;0.62;0.00;0.00;0.62;2.47;1.90;;;25.40;34.30;;;;;;2256071;61;20388;-49
2021/08/09 08:43:19;0.00;0.00;0.62;0.00;0.00;0.62;2.30;1.60;;;25.40;34.40;;;;;;2255877;61;20415;-50
2021/08/09 08:45:47;0.00;0.00;0.62;0.00;0.00;0.62;2.37;1.77;;;25.40;34.40;;;;;;2256928;61;20364;-49
2021/08/09 08:48:13;0.00;0.00;0.62;0.00;0.00;0.62;2.20;1.90;;;25.40;34.40;;;;;;2253673;61;20391;-50
2021/08/09 08:50:41;0.00;0.00;0.62;0.00;0.00;0.62;1.93;1.53;;;25.40;34.50;;;;;;2256204;61;20415;-51
2021/08/09 08:53:08;0.00;0.00;0.62;0.00;0.00;0.62;3.37;1.53;;;25.40;34.50;;;;;;2254125;61;20387;-50
2021/08/09 08:55:34;0.00;0.00;0.62;0.00;0.00;0.62;2.67;1.87;;;25.40;34.50;;;;;;2253555;61;20403;-51
2021/08/09 08:58:01;0.00;0.00;0.62;0.00;0.00;0.62;2.00;1.40;;;25.50;34.60;;;;;;2253440;61;20392;-51
2021/08/09 09:00:35;0.00;0.00;0.62;0.00;0.00;0.62;3.07;1.30;;;25.50;34.60;;;;;;2253960;61;20383;-52
2021/08/09 09:03:14;0.00;0.00;0.62;0.00;0.00;0.62;2.73;1.77;;;25.50;34.60;;;;;;2253984;61;20355;-53
2021/08/09 09:05:57;0.00;0.00;0.62;0.00;0.00;0.62;8.50;2.20;;;25.50;34.50;;;;;;2253622;61;20612;-68
2021/08/09 09:08:37;0.00;0.00;0.62;0.00;0.00;0.62;3.43;1.70;;;25.50;34.60;;;;;;2253997;61;20562;-67
2021/08/09 09:11:04;0.00;0.00;0.62;0.00;0.00;0.62;2.30;1.43;;;25.50;34.70;;;;;;2253861;61;20433;-72
2021/08/09 09:13:31;0.00;0.00;0.62;0.00;0.00;0.62;2.23;1.57;;;25.50;34.70;;;;;;2254215;61;20368;-69
2021/08/09 09:16:02;0.00;0.00;0.62;0.00;0.00;0.62;2.33;1.53;;;25.50;34.60;;;;;;2254120;61;20371;-68
2021/08/09 09:18:59;0.00;0.00;0.62;0.00;0.00;0.62;2.17;1.43;;;25.60;34.70;;;;;;2253123;61;20392;-55
2021/08/09 09:21:30;0.00;0.00;0.62;0.00;0.00;0.62;3.60;1.90;;;25.60;34.70;;;;;;2247234;61;20403;-52
2021/08/09 09:24:11;0.00;0.00;0.62;0.00;0.00;0.62;2.70;1.77;;;25.70;34.90;;;;;;2254035;61;20357;-53
2021/08/09 09:26:40;0.00;0.00;0.62;0.00;0.00;0.62;2.53;1.70;;;25.80;34.90;;;;;;2253361;61;20588;-54
2021/08/09 09:29:09;0.00;0.00;0.62;0.00;0.00;0.62;3.67;1.60;;;25.90;34.90;;;;;;2253846;61;20418;-50
2021/08/09 09:31:38;0.00;0.00;0.62;0.00;0.00;0.62;3.83;1.63;;;26.00;34.80;;;;;;2253940;61;20384;-53
2021/08/09 09:34:07;0.00;0.00;0.62;0.00;0.00;0.62;2.13;1.70;;;26.00;34.60;;;;;;2253361;61;20353;-55
2021/08/09 09:36:56;0.00;0.00;0.62;0.00;0.00;0.62;2.50;1.60;;;26.20;34.50;;;;;;2253931;61;20364;-56
2021/08/09 09:39:32;0.00;0.00;0.62;0.00;0.00;0.62;4.20;1.40;;;26.30;34.40;;;;;;2253774;61;20734;-51
2021/08/09 09:42:01;0.00;0.00;0.62;0.00;0.00;0.62;3.00;1.70;;;26.50;34.30;;;;;;2253354;61;20390;-57
2021/08/09 09:44:30;0.00;0.00;0.62;0.00;0.00;0.62;2.60;1.37;;;26.50;34.00;;;;;;2253834;61;20357;-53
2021/08/09 09:47:23;0.00;0.00;0.62;0.00;0.00;0.62;3.27;1.93;;;26.70;33.80;;;;;;2253910;61;20353;-53